AirNav   BOSE ProFlight Aviation Headset
 
 355 users online  

KSAS Salton Sea Airport
Salton City, California, USA

GOING TO SALTON CITY?


FAA INFORMATION EFFECTIVE 21 JUNE 2018

Location

FAA Identifier: SAS
Lat/Long: 33-14-28.3000N / 115-57-09.3000W
33-14.471667N / 115-57.155000W
33.2411944 / -115.9525833
(estimated)
Elevation: -84 ft. / -26 m (estimated)
Variation: 13E (1985)
From city: 1 mile SW of SALTON CITY, CA
Time zone: UTC -7 (UTC -8 during Standard Time)
Zip code: 92275

Airport Operations

Airport use: Open to the public
Activation date: 01/1960
Control tower: no
ARTCC: LOS ANGELES CENTER
FSS: SAN DIEGO FLIGHT SERVICE STATION
NOTAMs facility: SAN (NOTAM-D service available)
Attendance: UNATNDD
Pattern altitude: 716 ft. MSL
Wind indicator: yes
Segmented circle: yes

Airport Communications

CTAF: 122.9
WX AWOS-3 at L08 (19 nm W): 126.575 (760-767-3308)

Nearby radio navigation aids

VOR radial/distance  VOR name  Freq  Var
TRMr143/25.4THERMAL VORTAC116.2013E
JLIr064/32.4JULIAN VORTAC114.0015E
IPLr309/37.0IMPERIAL VORTAC115.9014E

Airport Services

Parking: tiedowns
Airframe service: NONE
Powerplant service: NONE
Bottled oxygen: NONE
Bulk oxygen: NONE

Runway Information

Runway 7/25

Dimensions: 5000 x 75 ft. / 1524 x 23 m
Surface: gravel, in good condition
Weight bearing capacity: 
Single wheel: 28.0
Runway edge markings: RY 07 AND RY 25 WHITE THLD BARS ARE ONLY MARKINGS ON RY.
RUNWAY 7  RUNWAY 25
Latitude: 33-14.433833N33-14.508167N
Longitude: 115-57.644333W115-56.667000W
Traffic pattern: rightleft
Runway end identifier lights: nono

Airport Ownership and Management from official FAA records

Ownership: Privately-owned
Owner: BURRTEC WASTE INDUSTRIES
9890 CHERRY AVENUE
FONTANA, CA 92335
Phone (909) 429-4200
Manager: DEBBIE HANSEN
9890 CHERRY AVENUE
FONTANA, CA 92335
Phone (909) 429-4200

Airport Operational Statistics

Aircraft operations: avg 29/month *
100% transient general aviation
* for 12-month period ending 31 May 2017

Additional Remarks

LOOSE GRVL INVOF PARKING AREA.
OCCASIONAL ULTRALIGHT ACTIVITY ON WEEKENDS.

Instrument Procedures

There are no published instrument procedures at KSAS.

Some nearby airports with instrument procedures:

L08 - Borrego Valley Airport (19 nm W)
KCLR - Cliff Hatfield Memorial Airport (23 nm E)
KTRM - Jacqueline Cochran Regional Airport (25 nm NW)
KBWC - Brawley Municipal Airport (26 nm SE)
KNJK - El Centro NAF Airport (29 nm SE)
 
Loc | Ops | Rwys | IFR | FBO | Links
Com | Nav | Svcs | Stats | Notes


 
Area around KSAS (Salton Sea Airport)
 
Road maps at: MapQuest Bing Google
 
Aerial photo
WARNING: Photo may not be current or correct
Aerial photo of KSAS (Salton Sea Airport)
Photo by Mark Holtzman
Photo taken 12-May-2017
looking west.

Do you have a better or more recent aerial photo of Salton Sea Airport that you would like to share? If so, please send us your photo.

 
Sectional chart

 
Airport distance calculator
Flying to Salton Sea Airport? Find the distance to fly.

From to KSAS

Sunrise and sunset
Times for 17-Jul-2018
 Local
(UTC-7)
 Zulu
(UTC)
Morning civil twilight05:2012:20
Sunrise05:4812:48
Sunset19:5202:52
Evening civil twilight20:2003:20

Current date and time
Zulu (UTC)  17-Jul-2018 09:47:33
Local (UTC-7)  17-Jul-2018 02:47:33
 
METAR
KL08 
19nm W 
170935Z AUTO 30005KT 10SM CLR 30/12 A2980 RMK AO2
KTRM 
26nm NW 
170852Z AUTO 31010KT 10SM CLR 35/14 A2974 RMK AO2 SLP073 T03500144 56001
KNJK 
29nm SE 
170856Z AUTO 24003KT 10SM CLR 33/11 A2979 RMK AO2 SLP102 T03280111 53001 $
KIPL 
31nm SE 
170853Z AUTO 12010KT 10SM CLR 33/19 A2977 RMK AO2 SLP083 T03280189 53005
TAF
KTRM 
26nm NW 
170520Z 1706/1806 33011KT P6SM SCT200 FM171100 VRB05KT P6SM SCT200 FM172100 13011KT P6SM SCT090 SCT250 FM180400 32010KT P6SM BKN150
KNJK 
29nm SE 
1707/1807 VRB06KT 9999 FEW100 SCT140 SCT250 QNH2966INS TEMPO 1720/1802 VRB15G25KT 9000 -SHRA VCTS BKN100CB OVC250 AUTOMATED SENSOR METWATCH 1707 TIL 1713 T28/1712Z T43/1800Z FS30024
KIPL 
31nm SE 
170520Z 1706/1806 27005KT P6SM SCT250 FM170900 14006KT P6SM FEW120 BKN250
NOTAMs
Click for the latest NOTAMs
NOTAMs are issued by the DoD/FAA and will open in a separate window not controlled by AirNav.

 

 
 

Would you like to see your business listed on this page?

 If your business provides an interesting product or service to pilots, flight crews, aircraft, or users of the Salton Sea Airport, you should consider listing it here.  To start the listing process, click on the button below
 
Add a business
 

Other Pages about Salton Sea Airport

Update a link
 
Copyright © AirNav, LLC. All rights reserved. Privacy Policy  Contact